Time;durP1;ratioP1;P1;durP2;ratioP2;P2;SDS_P1;SDS_P2;PMS_P1;PMS_P2;Temp;Humidity;BMP_temperature;BMP_pressure;BME280_temperature;BME280_humidity;BME280_pressure;Samples;Min_cycle;Max_cycle;Signal;HPM_P1;HPM_P2
2022/03/27 00:00:34;;;;;;;135.00;66.78;;;4.70;1.00;;;;;;5053897;28;20068;-75
2022/03/27 00:03:01;;;;;;;120.15;62.78;;;4.70;1.00;;;;;;5053925;28;20562;-75
2022/03/27 00:05:29;;;;;;;133.27;66.22;;;4.70;1.00;;;;;;5054141;28;20044;-76
2022/03/27 00:07:57;;;;;;;140.88;73.18;;;4.60;1.00;;;;;;5057755;28;20123;-76
2022/03/27 00:10:24;;;;;;;146.38;77.28;;;4.60;1.00;;;;;;5055133;28;20127;-76
2022/03/27 00:12:53;;;;;;;149.38;75.10;;;4.50;1.00;;;;;;5053572;28;20487;-76
2022/03/27 00:15:21;;;;;;;139.27;70.20;;;4.50;1.00;;;;;;5055703;28;20511;-76
2022/03/27 00:17:48;;;;;;;134.32;68.93;;;4.40;1.00;;;;;;5073479;28;20498;-76
2022/03/27 00:20:16;;;;;;;141.32;74.18;;;4.40;1.00;;;;;;5074206;28;20083;-76
2022/03/27 00:22:43;;;;;;;140.00;68.07;;;4.30;1.00;;;;;;5075342;28;20048;-74
2022/03/27 00:25:11;;;;;;;123.80;63.20;;;4.20;1.00;;;;;;5073831;28;20044;-76
2022/03/27 00:27:38;;;;;;;119.97;61.78;;;4.20;1.00;;;;;;5073392;28;20040;-76
2022/03/27 00:30:09;;;;;;;125.72;60.03;;;4.20;1.00;;;;;;5068902;28;20131;-76
2022/03/27 00:32:37;;;;;;;119.43;60.85;;;4.20;1.00;;;;;;5063175;28;20037;-76
2022/03/27 00:35:06;;;;;;;116.22;59.83;;;4.20;1.00;;;;;;5071580;28;20049;-75
2022/03/27 00:37:34;;;;;;;110.57;55.53;;;4.20;1.00;;;;;;5075902;28;20528;-77
2022/03/27 00:40:02;;;;;;;92.45;49.30;;;4.10;1.00;;;;;;5074122;28;20052;-75
2022/03/27 00:42:30;;;;;;;104.35;52.63;;;4.00;1.00;;;;;;5075627;28;20037;-76
2022/03/27 00:44:57;;;;;;;96.30;48.90;;;4.00;1.00;;;;;;5075551;28;20049;-75
2022/03/27 00:47:27;;;;;;;85.53;46.03;;;3.90;1.00;;;;;;5058501;28;20127;-76
2022/03/27 00:49:55;;;;;;;86.60;45.05;;;4.00;1.00;;;;;;5054972;28;20045;-75
2022/03/27 00:52:22;;;;;;;92.05;46.75;;;4.00;1.00;;;;;;5054357;28;20051;-78
2022/03/27 00:54:50;;;;;;;91.45;47.85;;;4.00;1.00;;;;;;5074246;28;20071;-77
2022/03/27 00:57:17;;;;;;;94.57;48.22;;;3.90;1.00;;;;;;5073361;28;20056;-76
2022/03/27 00:59:45;;;;;;;102.53;52.20;;;3.90;1.00;;;;;;5073365;28;20078;-75
2022/03/27 01:02:13;;;;;;;106.40;56.15;;;3.80;1.00;;;;;;5073168;28;20059;-77
2022/03/27 01:04:45;;;;;;;135.02;61.83;;;3.80;1.00;;;;;;5060205;28;20165;-76
2022/03/27 01:07:17;;;;;;;132.32;66.25;;;3.80;1.00;;;;;;5053061;28;20052;-77
2022/03/27 01:09:46;;;;;;;131.48;65.80;;;3.80;1.00;;;;;;5054253;28;20037;-76
2022/03/27 01:12:16;;;;;;;109.60;56.85;;;3.70;1.00;;;;;;5054273;28;20041;-76
2022/03/27 01:14:44;;;;;;;92.65;46.45;;;3.70;1.00;;;;;;5053817;28;20045;-76
2022/03/27 01:17:15;;;;;;;100.82;53.22;;;3.70;1.00;;;;;;5054242;28;20103;-75
2022/03/27 01:19:46;;;;;;;100.50;51.30;;;3.60;1.00;;;;;;5052547;28;20122;-78
2022/03/27 01:22:16;;;;;;;92.72;49.25;;;3.60;1.00;;;;;;5052331;28;20045;-75
2022/03/27 01:24:44;;;;;;;107.63;53.42;;;3.60;1.00;;;;;;5052526;28;20045;-75
2022/03/27 01:27:12;;;;;;;111.20;56.25;;;3.50;1.00;;;;;;5052812;28;20404;-76
2022/03/27 01:29:39;;;;;;;108.68;54.45;;;3.40;1.00;;;;;;5052794;28;20045;-76
2022/03/27 01:32:13;;;;;;;116.63;60.85;;;3.40;1.00;;;;;;5062004;28;20067;-75
2022/03/27 01:34:44;;;;;;;122.70;64.15;;;3.30;1.00;;;;;;5073452;28;20057;-75
2022/03/27 01:37:16;;;;;;;112.07;58.88;;;3.30;1.00;;;;;;5074947;28;20037;-77
2022/03/27 01:39:44;;;;;;;99.40;54.97;;;3.20;1.00;;;;;;5073654;28;20469;-76
2022/03/27 01:42:12;;;;;;;83.32;44.40;;;3.10;1.00;;;;;;5075083;28;20068;-75
2022/03/27 01:44:39;;;;;;;65.47;39.08;;;3.10;1.00;;;;;;5077373;28;20132;-76
2022/03/27 01:47:07;;;;;;;80.05;41.47;;;3.00;1.00;;;;;;5071049;28;20049;-76
2022/03/27 01:49:35;;;;;;;78.97;39.67;;;3.00;1.00;;;;;;5059296;28;20132;-74
2022/03/27 01:52:03;;;;;;;74.05;39.17;;;3.00;1.00;;;;;;5058330;28;20489;-76
2022/03/27 01:54:32;;;;;;;85.90;41.50;;;3.00;1.00;;;;;;5070624;28;20040;-77
2022/03/27 01:57:03;;;;;;;81.90;43.47;;;3.10;1.00;;;;;;5073734;28;20041;-76
2022/03/27 01:59:33;;;;;;;79.78;42.25;;;3.10;1.00;;;;;;5072221;28;20423;-74
2022/03/27 02:02:01;;;;;;;84.72;42.95;;;3.20;1.00;;;;;;5072699;28;20080;-76
2022/03/27 02:04:29;;;;;;;88.03;47.42;;;3.20;1.00;;;;;;5072702;28;20047;-75
2022/03/27 02:06:56;;;;;;;68.78;40.80;;;3.20;1.00;;;;;;5075101;28;20044;-76
2022/03/27 02:09:24;;;;;;;68.30;38.03;;;3.20;1.00;;;;;;5077202;28;20059;-75
2022/03/27 02:11:54;;;;;;;72.63;39.45;;;3.20;1.00;;;;;;5081946;28;20063;-78
2022/03/27 02:14:21;;;;;;;66.55;37.20;;;3.20;1.00;;;;;;5086838;28;20056;-75
2022/03/27 02:16:49;;;;;;;71.47;38.47;;;3.20;1.00;;;;;;5085219;28;20039;-75
2022/03/27 02:19:16;;;;;;;73.03;39.30;;;3.10;1.00;;;;;;5084944;28;20043;-76
2022/03/27 02:21:44;;;;;;;79.85;44.08;;;2.90;1.00;;;;;;5084771;28;20052;-75
2022/03/27 02:24:12;;;;;;;76.45;41.55;;;2.80;1.00;;;;;;5076122;28;20078;-76
2022/03/27 02:26:45;;;;;;;75.38;41.85;;;2.80;1.00;;;;;;5080197;28;20048;-75
2022/03/27 02:29:15;;;;;;;73.55;40.83;;;2.80;1.00;;;;;;5080074;28;20036;-75
2022/03/27 02:31:43;;;;;;;80.15;42.78;;;2.90;1.00;;;;;;5078598;28;20055;-75
2022/03/27 02:34:11;;;;;;;72.38;39.95;;;2.90;1.00;;;;;;5079621;28;20037;-76
2022/03/27 02:36:38;;;;;;;71.68;39.40;;;2.80;1.00;;;;;;5081178;28;20041;-75
2022/03/27 02:39:06;;;;;;;63.30;34.85;;;2.70;1.00;;;;;;5079064;28;20453;-75
2022/03/27 02:41:34;;;;;;;64.05;34.53;;;2.70;1.00;;;;;;5079526;28;20067;-75
2022/03/27 02:44:02;;;;;;;64.13;35.40;;;2.70;1.00;;;;;;5082905;28;20128;-75
2022/03/27 02:46:31;;;;;;;60.33;34.33;;;2.60;1.00;;;;;;5082890;28;20033;-76
2022/03/27 02:48:58;;;;;;;54.20;31.75;;;2.60;1.00;;;;;;5088244;28;20052;-74
2022/03/27 02:51:26;;;;;;;59.83;31.35;;;2.60;1.00;;;;;;5076065;28;20048;-76
2022/03/27 02:53:54;;;;;;;62.42;34.58;;;2.70;1.00;;;;;;5076687;28;20045;-76
2022/03/27 02:56:21;;;;;;;58.50;32.88;;;2.70;1.00;;;;;;5077152;28;20036;-75
2022/03/27 02:58:49;;;;;;;67.75;35.97;;;2.70;1.00;;;;;;5075898;28;20044;-74
2022/03/27 03:01:16;;;;;;;69.38;39.72;;;2.60;1.00;;;;;;5076405;28;20041;-75
2022/03/27 03:03:45;;;;;;;66.00;36.63;;;2.50;1.00;;;;;;5074992;28;20051;-76
2022/03/27 03:06:13;;;;;;;58.10;32.92;;;2.50;1.00;;;;;;5076145;28;20537;-75
2022/03/27 03:08:41;;;;;;;63.90;34.70;;;2.50;1.00;;;;;;5076556;28;20522;-76
2022/03/27 03:11:08;;;;;;;56.20;29.70;;;2.50;1.00;;;;;;5077434;28;20124;-75
2022/03/27 03:13:36;;;;;;;53.58;29.55;;;2.50;1.00;;;;;;5076325;28;20040;-75
2022/03/27 03:16:05;;;;;;;57.58;30.98;;;2.50;1.00;;;;;;5076068;28;20369;-75
2022/03/27 03:18:35;;;;;;;58.70;30.50;;;2.50;1.00;;;;;;5075934;28;20499;-76
2022/03/27 03:21:04;;;;;;;58.65;30.02;;;2.50;1.00;;;;;;5076403;28;20442;-75
2022/03/27 03:23:32;;;;;;;59.88;32.85;;;2.60;1.00;;;;;;5075743;28;20044;-76
2022/03/27 03:26:00;;;;;;;53.90;29.63;;;2.50;1.00;;;;;;5074631;28;20037;-75
2022/03/27 03:28:28;;;;;;;51.33;29.48;;;2.50;1.00;;;;;;5074663;28;20380;-76
2022/03/27 03:30:55;;;;;;;54.42;29.13;;;2.40;1.00;;;;;;5075720;28;20048;-77
2022/03/27 03:33:23;;;;;;;53.85;30.20;;;2.40;1.00;;;;;;5075615;28;20052;-75
2022/03/27 03:35:51;;;;;;;50.22;29.83;;;2.20;1.00;;;;;;5075670;28;20047;-75
2022/03/27 03:38:20;;;;;;;53.95;30.88;;;2.20;1.00;;;;;;5075409;28;20049;-76
2022/03/27 03:40:47;;;;;;;63.15;33.70;;;2.20;1.00;;;;;;5075787;28;20041;-75
2022/03/27 03:43:15;;;;;;;75.00;41.45;;;2.10;1.00;;;;;;5074958;28;20084;-75
2022/03/27 03:45:43;;;;;;;76.50;42.60;;;2.10;1.00;;;;;;5075223;28;20064;-75
2022/03/27 03:48:11;;;;;;;51.67;29.95;;;2.00;1.00;;;;;;5075424;28;20064;-76
2022/03/27 03:50:39;;;;;;;49.13;27.20;;;2.00;1.00;;;;;;5074338;28;20139;-74
2022/03/27 03:53:07;;;;;;;57.55;29.48;;;2.00;1.00;;;;;;5079829;28;20041;-79
2022/03/27 03:55:37;;;;;;;54.38;29.58;;;2.00;1.00;;;;;;5079540;28;20055;-79
2022/03/27 03:58:05;;;;;;;53.60;29.02;;;2.00;1.00;;;;;;5078971;28;20114;-79
2022/03/27 04:00:33;;;;;;;53.05;28.05;;;2.00;1.00;;;;;;5080531;28;20041;-78
2022/03/27 04:03:00;;;;;;;55.20;29.25;;;1.90;1.00;;;;;;5079524;28;20056;-79
2022/03/27 04:05:27;;;;;;;54.63;30.65;;;1.90;1.00;;;;;;5081142;28;20049;-80
2022/03/27 04:07:55;;;;;;;52.97;29.77;;;2.00;1.00;;;;;;5080314;28;20040;-78
2022/03/27 04:10:22;;;;;;;60.97;30.25;;;2.00;1.00;;;;;;5080442;28;20040;-79
2022/03/27 04:12:51;;;;;;;52.08;28.65;;;2.10;1.00;;;;;;5082069;28;20047;-79
2022/03/27 04:15:19;;;;;;;52.92;29.02;;;2.10;1.00;;;;;;5080971;28;20135;-78
2022/03/27 04:17:48;;;;;;;47.80;28.33;;;2.00;1.00;;;;;;5078935;28;20545;-78
2022/03/27 04:20:17;;;;;;;54.83;29.23;;;2.10;1.00;;;;;;5080268;28;20044;-76
2022/03/27 04:22:46;;;;;;;64.95;33.13;;;2.10;1.00;;;;;;5066666;28;20049;-78
2022/03/27 04:25:15;;;;;;;69.65;36.25;;;2.20;1.00;;;;;;5059184;28;20049;-77
2022/03/27 04:27:43;;;;;;;69.32;38.08;;;2.10;1.00;;;;;;5059763;28;20083;-76
2022/03/27 04:30:13;;;;;;;80.15;39.72;;;2.10;1.00;;;;;;5061116;28;20069;-78
2022/03/27 04:32:41;;;;;;;74.55;39.40;;;2.10;1.00;;;;;;5057113;28;20049;-78
2022/03/27 04:35:10;;;;;;;59.30;30.65;;;2.00;1.00;;;;;;5058283;28;20041;-79
2022/03/27 04:37:41;;;;;;;54.35;28.63;;;2.00;1.00;;;;;;5059381;28;20041;-77
2022/03/27 04:40:10;;;;;;;51.10;28.60;;;2.00;1.00;;;;;;5057547;28;20055;-78
2022/03/27 04:42:38;;;;;;;52.05;28.48;;;1.90;1.00;;;;;;5056889;28;20393;-77
2022/03/27 04:45:06;;;;;;;50.15;27.23;;;1.90;1.00;;;;;;5058796;28;20059;-79
2022/03/27 04:47:35;;;;;;;59.47;30.83;;;2.00;1.00;;;;;;5062186;28;20053;-76
2022/03/27 04:50:04;;;;;;;65.93;36.15;;;2.00;1.00;;;;;;5063544;28;20045;-78
2022/03/27 04:52:32;;;;;;;62.45;34.25;;;2.00;1.00;;;;;;5061740;28;20064;-76
2022/03/27 04:55:00;;;;;;;56.30;30.70;;;2.00;1.00;;;;;;5061564;28;20048;-79
2022/03/27 04:57:33;;;;;;;62.97;32.53;;;2.00;1.00;;;;;;5061418;28;20045;-78
2022/03/27 05:00:02;;;;;;;59.90;34.38;;;2.20;1.00;;;;;;5059559;28;20055;-78
2022/03/27 05:02:29;;;;;;;61.15;32.80;;;2.30;1.00;;;;;;5059012;28;20053;-79
2022/03/27 05:04:58;;;;;;;57.25;31.95;;;2.30;1.00;;;;;;5060471;28;20044;-79
2022/03/27 05:07:26;;;;;;;57.78;29.27;;;2.40;1.00;;;;;;5057487;28;20102;-77
2022/03/27 05:09:53;;;;;;;52.97;30.63;;;2.40;1.00;;;;;;5058303;28;20037;-79
2022/03/27 05:12:21;;;;;;;61.15;31.05;;;2.40;1.00;;;;;;5055736;28;20451;-78
2022/03/27 05:14:48;;;;;;;63.92;34.08;;;2.40;1.00;;;;;;5057088;28;20048;-77
2022/03/27 05:17:15;;;;;;;81.95;39.42;;;2.30;1.00;;;;;;5056703;28;20068;-77
2022/03/27 05:19:43;;;;;;;65.15;36.88;;;2.30;1.00;;;;;;5057361;28;20051;-78
2022/03/27 05:22:12;;;;;;;82.57;40.38;;;2.40;1.00;;;;;;5056712;28;20499;-76
2022/03/27 05:24:39;;;;;;;71.32;36.63;;;2.40;1.00;;;;;;5058750;28;20056;-78
2022/03/27 05:27:07;;;;;;;68.57;36.97;;;2.60;1.00;;;;;;5056900;28;20045;-78
2022/03/27 05:29:35;;;;;;;64.45;34.33;;;2.70;1.00;;;;;;5056031;28;20052;-80
2022/03/27 05:32:02;;;;;;;59.20;29.65;;;2.70;1.00;;;;;;5057040;28;20048;-78
2022/03/27 05:34:29;;;;;;;55.35;27.85;;;2.80;1.00;;;;;;5057339;28;20131;-77
2022/03/27 05:36:57;;;;;;;53.75;29.10;;;2.80;1.00;;;;;;5058639;28;20033;-80
2022/03/27 05:39:26;;;;;;;56.28;28.90;;;2.80;1.00;;;;;;5059620;28;20508;-79
2022/03/27 05:41:54;;;;;;;52.63;29.67;;;2.90;1.00;;;;;;5060962;28;20045;-77
2022/03/27 05:44:21;;;;;;;69.95;37.28;;;3.10;1.00;;;;;;5057301;28;20044;-78
2022/03/27 05:46:48;;;;;;;78.05;38.38;;;3.20;1.00;;;;;;5062296;28;20037;-79
2022/03/27 05:49:16;;;;;;;68.13;37.00;;;3.50;1.00;;;;;;5063429;28;20053;-78
2022/03/27 05:51:44;;;;;;;65.65;35.13;;;3.70;1.00;;;;;;5056494;28;20485;-78
2022/03/27 05:54:12;;;;;;;65.90;36.22;;;3.90;1.00;;;;;;5057213;28;20045;-78
2022/03/27 05:56:40;;;;;;;59.75;33.15;;;4.10;1.00;;;;;;5058230;28;20083;-78
2022/03/27 05:59:08;;;;;;;59.60;33.00;;;4.30;1.00;;;;;;5058171;28;20063;-77
2022/03/27 06:01:35;;;;;;;59.78;33.45;;;4.60;1.00;;;;;;5059438;28;20113;-78
2022/03/27 06:04:03;;;;;;;59.78;32.53;;;4.70;1.00;;;;;;5071551;28;20112;-78
2022/03/27 06:06:31;;;;;;;54.47;32.60;;;5.00;1.00;;;;;;5075642;28;20115;-78
2022/03/27 06:08:58;;;;;;;58.55;33.35;;;5.40;1.00;;;;;;5082771;28;20068;-77
2022/03/27 06:11:25;;;;;;;63.03;35.35;;;5.70;1.00;;;;;;5071908;28;20052;-78
2022/03/27 06:13:54;;;;;;;60.13;34.55;;;6.10;1.00;;;;;;5076602;28;20060;-79
2022/03/27 06:16:22;;;;;;;59.20;33.63;;;6.30;1.00;;;;;;5072910;28;20060;-78
2022/03/27 06:18:49;;;;;;;66.38;36.35;;;6.60;1.00;;;;;;5073133;28;20084;-78
2022/03/27 06:21:17;;;;;;;61.30;34.65;;;6.80;1.00;;;;;;5081769;28;20044;-77
2022/03/27 06:23:44;;;;;;;62.65;35.00;;;7.10;1.00;;;;;;5073980;28;20051;-77
2022/03/27 06:26:12;;;;;;;56.53;35.22;;;7.40;1.00;;;;;;5075487;28;20056;-78
2022/03/27 06:28:39;;;;;;;60.78;36.28;;;7.50;1.00;;;;;;5083542;28;20057;-79
2022/03/27 06:31:08;;;;;;;66.40;37.15;;;7.60;1.00;;;;;;5081328;28;20066;-79
2022/03/27 06:33:36;;;;;;;61.92;36.42;;;7.60;1.00;;;;;;5083528;28;20047;-79
2022/03/27 06:36:04;;;;;;;67.38;39.50;;;7.70;1.00;;;;;;5072602;28;20040;-77
2022/03/27 06:38:31;;;;;;;71.20;39.60;;;7.90;1.00;;;;;;5081294;28;20044;-77
2022/03/27 06:40:59;;;;;;;71.57;39.95;;;7.90;1.00;;;;;;5073820;28;20049;-80
2022/03/27 06:43:27;;;;;;;78.28;42.55;;;7.90;1.00;;;;;;5070925;28;20041;-77
2022/03/27 06:45:54;;;;;;;76.47;43.97;;;7.90;1.00;;;;;;5070912;28;20044;-79
2022/03/27 06:48:23;;;;;;;73.20;43.90;;;8.10;1.00;;;;;;5070603;28;20043;-79
2022/03/27 06:50:51;;;;;;;81.60;43.92;;;8.40;1.00;;;;;;5072958;28;20155;-79
2022/03/27 06:53:22;;;;;;;73.65;40.42;;;8.60;1.00;;;;;;5074262;28;20048;-77
2022/03/27 06:55:49;;;;;;;70.35;37.70;;;8.90;1.00;;;;;;5076322;28;20067;-79
2022/03/27 06:58:17;;;;;;;59.63;34.65;;;9.10;1.00;;;;;;5073651;28;20037;-79
2022/03/27 07:03:31;;;;;;;60.95;35.75;;;9.20;1.00;;;;;;5062684;28;20071;-79
2022/03/27 07:05:59;;;;;;;65.28;39.08;;;9.50;1.00;;;;;;5063064;28;20045;-78
2022/03/27 07:08:29;;;;;;;54.45;33.80;;;9.90;1.00;;;;;;5064056;28;20045;-80
2022/03/27 07:10:56;;;;;;;57.03;33.63;;;10.20;1.00;;;;;;5063559;28;20045;-80
2022/03/27 07:13:24;;;;;;;59.33;34.33;;;10.50;1.00;;;;;;5077287;28;20468;-79
2022/03/27 07:15:52;;;;;;;59.03;33.55;;;10.90;1.00;;;;;;5085138;28;20036;-78
2022/03/27 07:18:20;;;;;;;47.95;30.23;;;11.20;1.00;;;;;;5083978;28;20092;-79
2022/03/27 07:20:49;;;;;;;41.70;25.52;;;11.40;1.00;;;;;;5073384;28;20049;-80
2022/03/27 07:23:19;;;;;;;43.42;27.65;;;11.50;1.00;;;;;;5061574;28;20057;-78
2022/03/27 07:25:48;;;;;;;44.88;27.58;;;11.60;1.00;;;;;;5061318;28;20069;-79
2022/03/27 07:28:18;;;;;;;45.47;29.63;;;11.60;1.00;;;;;;5062802;28;20037;-79
2022/03/27 07:30:47;;;;;;;48.15;28.63;;;11.70;1.00;;;;;;5061328;28;20044;-77
2022/03/27 07:33:14;;;;;;;45.13;26.75;;;11.70;1.00;;;;;;5064176;28;20090;-78
2022/03/27 07:35:42;;;;;;;48.97;28.15;;;11.80;1.00;;;;;;5065182;28;20051;-79
2022/03/27 07:38:11;;;;;;;43.53;27.17;;;12.00;1.00;;;;;;5069116;28;20127;-78
2022/03/27 07:40:39;;;;;;;39.70;26.00;;;12.30;1.00;;;;;;5076096;28;20101;-78
2022/03/27 07:43:08;;;;;;;48.33;26.70;;;12.70;1.00;;;;;;5069373;28;20521;-78
2022/03/27 07:45:36;;;;;;;46.95;27.52;;;13.10;1.00;;;;;;5068392;28;20053;-79
2022/03/27 07:48:04;;;;;;;51.55;28.58;;;13.40;1.00;;;;;;5070300;28;20040;-78
2022/03/27 07:50:32;;;;;;;44.78;27.17;;;13.70;1.00;;;;;;5066648;28;20057;-80
2022/03/27 07:53:00;;;;;;;41.53;24.77;;;13.90;1.00;;;;;;5076663;28;20515;-81
2022/03/27 07:55:29;;;;;;;43.95;25.40;;;14.10;1.00;;;;;;5075759;28;20391;-79
2022/03/27 07:57:57;;;;;;;45.92;28.20;;;14.10;1.00;;;;;;5080580;28;20044;-81
2022/03/27 08:00:27;;;;;;;42.60;26.00;;;14.20;1.00;;;;;;5075814;28;20066;-82
2022/03/27 08:02:55;;;;;;;47.55;26.40;;;14.30;1.00;;;;;;5063756;28;20060;-80
2022/03/27 08:05:22;;;;;;;42.88;26.63;;;14.30;1.00;;;;;;5067350;28;20041;-80
2022/03/27 08:07:50;;;;;;;49.85;27.50;;;14.20;1.00;;;;;;5061273;28;20033;-79
2022/03/27 08:10:17;;;;;;;46.38;26.63;;;14.20;1.00;;;;;;5062181;28;20048;-79
2022/03/27 08:12:47;;;;;;;48.63;29.67;;;14.40;1.00;;;;;;5063320;28;20043;-79
2022/03/27 08:15:14;;;;;;;48.25;28.75;;;14.60;1.00;;;;;;5056351;28;20037;-79
2022/03/27 08:17:42;;;;;;;68.30;26.08;;;14.70;1.00;;;;;;5049819;28;20507;-78
2022/03/27 08:20:10;;;;;;;40.55;21.17;;;14.90;1.00;;;;;;5054433;28;20036;-79
2022/03/27 08:22:38;;;;;;;41.17;20.13;;;15.00;1.00;;;;;;5065221;28;20056;-80
2022/03/27 08:25:06;;;;;;;41.00;20.75;;;15.10;1.00;;;;;;5057235;28;20080;-78
2022/03/27 08:27:33;;;;;;;43.17;22.45;;;15.30;1.00;;;;;;5061761;28;20025;-79
2022/03/27 08:30:04;;;;;;;40.97;22.52;;;15.50;1.00;;;;;;5059529;28;20095;-81
2022/03/27 08:32:31;;;;;;;33.35;20.02;;;15.90;1.00;;;;;;5060536;28;20043;-80
2022/03/27 08:34:58;;;;;;;28.05;16.60;;;16.10;1.00;;;;;;5061084;28;20041;-80
2022/03/27 08:37:26;;;;;;;27.08;15.77;;;16.20;1.00;;;;;;5060616;28;20044;-80
2022/03/27 08:39:54;;;;;;;22.55;15.00;;;16.10;1.00;;;;;;5059986;28;20055;-77
2022/03/27 08:42:21;;;;;;;26.85;16.35;;;16.10;1.00;;;;;;5058607;28;20063;-79
2022/03/27 08:44:49;;;;;;;30.48;16.42;;;16.40;1.00;;;;;;5062633;28;20483;-77
2022/03/27 08:47:23;;;;;;;29.50;16.20;;;16.60;1.00;;;;;;5075703;28;21940;-77
2022/03/27 08:49:59;;;;;;;30.13;18.20;;;16.70;1.00;;;;;;5073302;28;20040;-80
2022/03/27 08:52:50;;;;;;;38.47;19.60;;;16.70;1.00;;;;;;5070234;28;20045;-80
2022/03/27 08:55:21;;;;;;;33.92;21.65;;;16.80;1.00;;;;;;5058197;28;20056;-79
2022/03/27 08:58:00;;;;;;;37.03;23.17;;;16.90;1.00;;;;;;5058554;28;20041;-78
2022/03/27 09:00:29;;;;;;;40.50;24.17;;;17.00;1.00;;;;;;5059633;28;20068;-78
2022/03/27 09:03:00;;;;;;;42.92;24.77;;;17.20;1.00;;;;;;5063858;28;20049;-79
2022/03/27 09:05:28;;;;;;;38.45;24.30;;;17.20;1.00;;;;;;5062490;28;20436;-78
2022/03/27 09:07:57;;;;;;;39.42;24.02;;;17.10;1.00;;;;;;5062291;28;20041;-80
2022/03/27 09:10:29;;;;;;;32.72;20.20;;;17.30;1.00;;;;;;5065302;28;20033;-78
2022/03/27 09:12:57;;;;;;;37.28;20.92;;;17.40;1.00;;;;;;5069321;28;20045;-79
2022/03/27 09:15:25;;;;;;;41.38;22.10;;;17.50;1.00;;;;;;5069368;28;20102;-79
2022/03/27 09:18:01;;;;;;;35.55;20.50;;;17.70;1.00;;;;;;5064328;28;20041;-80
2022/03/27 09:20:41;;;;;;;32.80;20.55;;;17.90;1.00;;;;;;5062141;28;20098;-79
2022/03/27 09:23:15;;;;;;;35.58;20.88;;;17.80;1.00;;;;;;5063624;28;20041;-80
2022/03/27 09:25:53;;;;;;;34.25;20.35;;;17.80;1.00;;;;;;5059015;28;20149;-79
2022/03/27 09:28:32;;;;;;;35.15;20.15;;;17.90;1.00;;;;;;5060153;28;20037;-78
2022/03/27 09:31:01;;;;;;;28.92;18.85;;;17.90;1.00;;;;;;5060241;28;20033;-79
2022/03/27 09:33:47;;;;;;;26.35;18.88;;;18.00;1.00;;;;;;5058767;28;20117;-79
2022/03/27 09:36:17;;;;;;;32.00;20.38;;;18.10;1.00;;;;;;5060167;28;20060;-79
2022/03/27 09:39:02;;;;;;;34.53;20.33;;;18.00;1.00;;;;;;5058053;28;20049;-78
2022/03/27 09:41:37;;;;;;;27.90;17.38;;;18.20;1.00;;;;;;5058383;28;20037;-78
2022/03/27 09:44:07;;;;;;;36.08;19.42;;;18.20;1.00;;;;;;5059736;28;20049;-79
2022/03/27 09:46:57;;;;;;;32.22;18.75;;;18.30;1.00;;;;;;5059128;28;20095;-79
2022/03/27 09:49:39;;;;;;;29.65;19.00;;;18.40;1.00;;;;;;5060332;28;20037;-78
2022/03/27 09:52:09;;;;;;;34.60;19.17;;;18.60;1.00;;;;;;5064992;28;20072;-78
2022/03/27 09:54:48;;;;;;;34.60;21.02;;;18.70;1.00;;;;;;5061000;28;20044;-79
2022/03/27 09:57:21;;;;;;;34.03;20.55;;;18.70;1.00;;;;;;5058894;28;20083;-79
2022/03/27 09:59:49;;;;;;;31.00;19.30;;;18.70;1.00;;;;;;5057672;28;20059;-79
2022/03/27 10:02:28;;;;;;;33.13;19.92;;;18.90;1.00;;;;;;5056385;28;20107;-78
2022/03/27 10:04:59;;;;;;;33.10;18.55;;;18.90;1.00;;;;;;5058430;28;20052;-79
2022/03/27 10:07:33;;;;;;;27.90;17.02;;;19.00;1.00;;;;;;5057442;28;20041;-80
2022/03/27 10:10:01;;;;;;;28.58;19.13;;;19.00;1.00;;;;;;5056603;28;20147;-77
2022/03/27 10:12:31;;;;;;;26.77;17.48;;;19.20;1.00;;;;;;5058699;28;20096;-81
2022/03/27 10:15:00;;;;;;;32.60;19.13;;;19.30;1.00;;;;;;5057560;28;20053;-79
2022/03/27 10:17:29;;;;;;;34.10;18.75;;;19.30;1.00;;;;;;5056858;28;20147;-80
2022/03/27 10:20:04;;;;;;;28.25;17.75;;;19.40;1.00;;;;;;5057439;28;20037;-77
2022/03/27 10:22:35;;;;;;;29.33;17.75;;;19.30;1.00;;;;;;5058076;28;20053;-78
2022/03/27 10:25:04;;;;;;;28.52;18.42;;;19.10;1.00;;;;;;5058120;28;20503;-79
2022/03/27 10:27:32;;;;;;;28.42;17.92;;;19.20;1.00;;;;;;5057176;28;20116;-80
2022/03/27 10:30:00;;;;;;;31.27;18.42;;;19.20;1.00;;;;;;5059429;28;20076;-78
2022/03/27 10:32:28;;;;;;;26.10;18.70;;;19.30;1.00;;;;;;5058876;28;20071;-79
2022/03/27 10:35:07;;;;;;;29.88;21.38;;;19.20;1.00;;;;;;5060194;28;20045;-77
2022/03/27 10:37:41;;;;;;;30.15;18.92;;;19.20;1.00;;;;;;5060645;28;20065;-79
2022/03/27 10:40:17;;;;;;;26.83;19.30;;;19.30;1.00;;;;;;5071951;28;20104;-77
2022/03/27 10:42:55;;;;;;;36.40;21.02;;;19.50;1.00;;;;;;5073740;28;20051;-79
2022/03/27 10:45:23;;;;;;;34.95;19.30;;;19.50;1.00;;;;;;5072403;28;20067;-78
2022/03/27 10:48:10;;;;;;;29.65;20.02;;;19.40;1.00;;;;;;5064642;28;20049;-78
2022/03/27 10:50:48;;;;;;;34.22;20.63;;;19.30;1.00;;;;;;5067199;28;20110;-79
2022/03/27 10:53:16;;;;;;;31.95;19.45;;;19.40;1.00;;;;;;5063674;28;20098;-80
2022/03/27 10:55:45;;;;;;;34.45;20.05;;;19.40;1.00;;;;;;5064807;28;20049;-82
2022/03/27 10:58:33;;;;;;;35.65;20.73;;;19.50;1.00;;;;;;5063665;28;20510;-79
2022/03/27 11:01:02;;;;;;;41.05;21.75;;;19.50;1.00;;;;;;5063749;28;20116;-79
2022/03/27 11:04:05;;;;;;;33.72;21.42;;;19.50;1.00;;;;;;5064356;28;20045;-80
2022/03/27 11:06:35;;;;;;;31.63;20.17;;;19.60;1.00;;;;;;5041927;28;20067;-80
2022/03/27 11:09:05;;;;;;;42.53;22.25;;;19.50;1.00;;;;;;5065591;28;20041;-80
2022/03/27 11:11:54;;;;;;;33.72;20.70;;;19.50;1.00;;;;;;5064035;28;20040;-81
2022/03/27 11:14:41;;;;;;;30.65;20.70;;;19.50;1.00;;;;;;5063152;28;20048;-80
2022/03/27 11:17:11;;;;;;;;;;;19.60;1.00;;;;;;5062740;28;20049;-80
2022/03/27 11:19:47;;;;;;;41.53;21.25;;;19.60;1.00;;;;;;5060263;28;20086;-78
2022/03/27 11:22:49;;;;;;;30.33;21.02;;;19.70;1.00;;;;;;5061404;28;20106;-77
2022/03/27 11:25:45;;;;;;;41.55;20.50;;;19.90;1.00;;;;;;5038863;28;20397;-79
2022/03/27 11:28:15;;;;;;;38.30;21.83;;;19.90;1.00;;;;;;5060104;28;20045;-78
2022/03/27 11:31:15;;;;;;;36.45;21.65;;;20.00;1.00;;;;;;5060956;28;20071;-80
2022/03/27 11:33:44;;;;;;;32.80;21.40;;;20.10;1.00;;;;;;5059379;28;20063;-79
2022/03/27 11:36:25;;;;;;;33.03;22.17;;;20.00;1.00;;;;;;5060513;28;20064;-79
2022/03/27 11:39:04;;;;;;;36.42;22.00;;;19.80;1.00;;;;;;5062725;28;20057;-79
2022/03/27 11:41:42;;;;;;;33.92;21.33;;;19.80;1.00;;;;;;5060638;28;20051;-80
2022/03/27 11:45:06;;;;;;;36.60;22.15;;;19.90;1.00;;;;;;5061030;28;20051;-80
2022/03/27 11:47:16;;;;;;;35.47;21.48;;;20.00;1.00;;;;;;5061027;28;20059;-80
2022/03/27 11:49:44;;;;;;;31.00;22.45;;;20.00;1.00;;;;;;5059813;28;20041;-79
2022/03/27 11:52:13;;;;;;;39.25;22.30;;;19.90;1.00;;;;;;5063154;28;20045;-79
2022/03/27 11:54:42;;;;;;;34.33;21.75;;;19.80;1.00;;;;;;5064364;28;20037;-79
2022/03/27 11:57:11;;;;;;;37.38;23.45;;;19.90;1.00;;;;;;5061271;28;20124;-80
2022/03/27 11:59:46;;;;;;;32.47;21.13;;;20.00;1.00;;;;;;5060971;28;20051;-80
2022/03/27 12:02:15;;;;;;;37.95;22.83;;;20.10;1.00;;;;;;5061352;28;20051;-79
2022/03/27 12:04:53;;;;;;;36.70;23.80;;;20.10;1.00;;;;;;5059201;28;20049;-79
2022/03/27 12:07:22;;;;;;;33.72;22.13;;;20.00;1.00;;;;;;5059925;28;20079;-78
2022/03/27 12:10:04;;;;;;;40.47;23.63;;;20.00;1.00;;;;;;5061059;28;20041;-81
2022/03/27 12:12:32;;;;;;;38.63;22.60;;;20.10;1.00;;;;;;5061867;28;20048;-80
2022/03/27 12:15:04;;;;;;;37.70;22.35;;;20.20;1.00;;;;;;5059645;28;20072;-80
2022/03/27 12:17:33;;;;;;;30.05;19.92;;;20.30;1.00;;;;;;5059732;28;20121;-78
2022/03/27 12:20:02;;;;;;;37.08;20.13;;;20.40;1.00;;;;;;5058507;28;20048;-80
2022/03/27 12:22:35;;;;;;;30.17;19.17;;;20.40;1.00;;;;;;5058198;28;20120;-79
2022/03/27 12:25:07;;;;;;;31.10;19.58;;;20.40;1.00;;;;;;5062324;28;20041;-79
2022/03/27 12:30:31;;;;;;;29.63;20.15;;;20.50;1.00;;;;;;5067411;28;20033;-79
2022/03/27 12:33:00;;;;;;;29.55;20.00;;;20.50;1.00;;;;;;5056307;28;20057;-78
2022/03/27 12:35:29;;;;;;;33.47;21.33;;;20.50;1.00;;;;;;5057819;28;20068;-79
2022/03/27 12:37:56;;;;;;;34.42;21.90;;;20.50;1.00;;;;;;5058915;28;20535;-78
2022/03/27 12:40:26;;;;;;;33.60;20.58;;;20.40;1.00;;;;;;5059523;28;20040;-80
2022/03/27 12:42:54;;;;;;;33.05;20.05;;;20.50;1.00;;;;;;5061397;28;20063;-78
2022/03/27 12:45:32;;;;;;;40.50;23.10;;;20.60;1.00;;;;;;5063660;28;20052;-78
2022/03/27 12:48:03;;;;;;;38.78;25.27;;;20.70;1.00;;;;;;5064630;28;20041;-79
2022/03/27 12:50:34;;;;;;;29.17;20.50;;;20.70;1.00;;;;;;5059482;28;20045;-78
2022/03/27 12:53:03;;;;;;;33.83;19.63;;;20.70;1.00;;;;;;5063407;28;20508;-78
2022/03/27 12:55:44;;;;;;;32.50;17.60;;;20.60;1.00;;;;;;5059263;28;20140;-77
2022/03/27 12:58:12;;;;;;;25.90;16.80;;;20.70;1.00;;;;;;5060033;28;20052;-81
2022/03/27 13:00:41;;;;;;;24.20;16.48;;;20.60;1.00;;;;;;5062870;28;20037;-80